sensor_id;sensor_type;location;lat;lon;timestamp;temperature;humidity
75105;DHT22;64778;47.314;8.466;2023-02-15T00:01:11;0.50;91.10
75105;DHT22;64778;47.314;8.466;2023-02-15T00:03:38;0.40;90.70
75105;DHT22;64778;47.314;8.466;2023-02-15T00:06:04;0.30;91.40
75105;DHT22;64778;47.314;8.466;2023-02-15T00:08:32;0.20;91.20
75105;DHT22;64778;47.314;8.466;2023-02-15T00:11:13;0.10;91.40
75105;DHT22;64778;47.314;8.466;2023-02-15T00:13:42;0.10;91.40
75105;DHT22;64778;47.314;8.466;2023-02-15T00:16:12;-0.10;91.60
75105;DHT22;64778;47.314;8.466;2023-02-15T00:18:39;-0.20;91.40
75105;DHT22;64778;47.314;8.466;2023-02-15T00:21:08;-0.20;91.90
75105;DHT22;64778;47.314;8.466;2023-02-15T00:23:34;-0.10;91.60
75105;DHT22;64778;47.314;8.466;2023-02-15T00:26:08;-0.20;91.40
75105;DHT22;64778;47.314;8.466;2023-02-15T00:28:36;-0.30;91.50
75105;DHT22;64778;47.314;8.466;2023-02-15T00:31:06;-0.30;91.70
75105;DHT22;64778;47.314;8.466;2023-02-15T00:33:38;-0.20;91.60
75105;DHT22;64778;47.314;8.466;2023-02-15T00:36:07;-0.20;91.50
75105;DHT22;64778;47.314;8.466;2023-02-15T00:38:33;-0.20;91.80
75105;DHT22;64778;47.314;8.466;2023-02-15T00:41:03;-0.20;91.80
75105;DHT22;64778;47.314;8.466;2023-02-15T00:43:32;-0.10;91.60
75105;DHT22;64778;47.314;8.466;2023-02-15T00:45:58;-0.10;91.40
75105;DHT22;64778;47.314;8.466;2023-02-15T00:48:24;-0.10;91.20
75105;DHT22;64778;47.314;8.466;2023-02-15T00:50:51;0.00;90.80
75105;DHT22;64778;47.314;8.466;2023-02-15T00:53:19;0.00;90.70
75105;DHT22;64778;47.314;8.466;2023-02-15T00:55:48;-0.10;90.80
75105;DHT22;64778;47.314;8.466;2023-02-15T00:58:15;-0.10;90.70
75105;DHT22;64778;47.314;8.466;2023-02-15T01:00:45;-0.20;90.60
75105;DHT22;64778;47.314;8.466;2023-02-15T01:03:13;-0.20;90.80
75105;DHT22;64778;47.314;8.466;2023-02-15T01:05:39;-0.20;90.70
75105;DHT22;64778;47.314;8.466;2023-02-15T01:08:10;-0.30;90.60
75105;DHT22;64778;47.314;8.466;2023-02-15T01:10:36;-0.30;90.80
75105;DHT22;64778;47.314;8.466;2023-02-15T01:13:03;-0.40;90.80
75105;DHT22;64778;47.314;8.466;2023-02-15T01:15:34;-0.40;90.90
75105;DHT22;64778;47.314;8.466;2023-02-15T01:18:00;-0.30;91.00
75105;DHT22;64778;47.314;8.466;2023-02-15T01:20:29;-0.20;90.80
75105;DHT22;64778;47.314;8.466;2023-02-15T01:22:57;-0.30;90.50
75105;DHT22;64778;47.314;8.466;2023-02-15T01:25:26;-0.30;90.60
75105;DHT22;64778;47.314;8.466;2023-02-15T01:27:56;-0.30;90.60
75105;DHT22;64778;47.314;8.466;2023-02-15T01:30:21;-0.30;90.50
75105;DHT22;64778;47.314;8.466;2023-02-15T01:32:47;-0.20;90.00
75105;DHT22;64778;47.314;8.466;2023-02-15T01:35:13;-0.30;89.30
75105;DHT22;64778;47.314;8.466;2023-02-15T01:37:38;-0.40;90.10
75105;DHT22;64778;47.314;8.466;2023-02-15T01:40:10;-0.50;89.60
75105;DHT22;64778;47.314;8.466;2023-02-15T01:42:37;-0.90;90.80
75105;DHT22;64778;47.314;8.466;2023-02-15T01:47:47;-1.20;91.10
75105;DHT22;64778;47.314;8.466;2023-02-15T01:50:17;-1.30;91.00
75105;DHT22;64778;47.314;8.466;2023-02-15T01:52:50;-1.30;91.30
75105;DHT22;64778;47.314;8.466;2023-02-15T01:55:23;-1.30;90.90
75105;DHT22;64778;47.314;8.466;2023-02-15T01:57:51;-1.40;91.10
75105;DHT22;64778;47.314;8.466;2023-02-15T02:00:17;-1.40;91.20
75105;DHT22;64778;47.314;8.466;2023-02-15T02:02:46;-1.40;91.20
75105;DHT22;64778;47.314;8.466;2023-02-15T02:05:16;-1.40;91.10
75105;DHT22;64778;47.314;8.466;2023-02-15T02:07:46;-1.30;90.80
75105;DHT22;64778;47.314;8.466;2023-02-15T02:10:20;-1.30;90.80
75105;DHT22;64778;47.314;8.466;2023-02-15T02:12:49;-1.30;90.70
75105;DHT22;64778;47.314;8.466;2023-02-15T02:15:37;-1.20;90.40
75105;DHT22;64778;47.314;8.466;2023-02-15T02:18:18;-1.20;90.30
75105;DHT22;64778;47.314;8.466;2023-02-15T02:20:59;-1.20;90.40
75105;DHT22;64778;47.314;8.466;2023-02-15T02:35:01;-1.20;90.10
75105;DHT22;64778;47.314;8.466;2023-02-15T02:41:09;-1.60;90.20
75105;DHT22;64778;47.314;8.466;2023-02-15T02:46:37;-1.70;89.50
75105;DHT22;64778;47.314;8.466;2023-02-15T02:49:09;-1.90;89.90
75105;DHT22;64778;47.314;8.466;2023-02-15T02:51:37;-2.00;90.20
75105;DHT22;64778;47.314;8.466;2023-02-15T02:54:06;-2.00;90.10
75105;DHT22;64778;47.314;8.466;2023-02-15T02:56:41;-2.10;90.20
75105;DHT22;64778;47.314;8.466;2023-02-15T02:59:28;-2.20;90.50
75105;DHT22;64778;47.314;8.466;2023-02-15T03:02:04;-2.20;90.30
75105;DHT22;64778;47.314;8.466;2023-02-15T03:04:35;-2.30;90.20
75105;DHT22;64778;47.314;8.466;2023-02-15T03:07:08;-2.20;90.30
75105;DHT22;64778;47.314;8.466;2023-02-15T03:09:41;-2.20;90.20
75105;DHT22;64778;47.314;8.466;2023-02-15T03:12:19;-2.10;90.10
75105;DHT22;64778;47.314;8.466;2023-02-15T03:14:55;-2.10;89.80
75105;DHT22;64778;47.314;8.466;2023-02-15T03:17:23;-2.10;89.50
75105;DHT22;64778;47.314;8.466;2023-02-15T03:19:53;-2.10;89.30
75105;DHT22;64778;47.314;8.466;2023-02-15T03:22:31;-2.10;89.30
75105;DHT22;64778;47.314;8.466;2023-02-15T03:25:11;-2.10;89.10
75105;DHT22;64778;47.314;8.466;2023-02-15T03:27:46;-2.10;88.80
75105;DHT22;64778;47.314;8.466;2023-02-15T03:30:15;-2.10;89.30
75105;DHT22;64778;47.314;8.466;2023-02-15T03:32:45;-2.10;89.20
75105;DHT22;64778;47.314;8.466;2023-02-15T03:35:11;-2.20;89.00
75105;DHT22;64778;47.314;8.466;2023-02-15T03:37:59;-2.20;89.50
75105;DHT22;64778;47.314;8.466;2023-02-15T03:40:38;-2.30;89.90
75105;DHT22;64778;47.314;8.466;2023-02-15T03:45:54;-2.20;89.30
75105;DHT22;64778;47.314;8.466;2023-02-15T03:48:25;-2.30;89.60
75105;DHT22;64778;47.314;8.466;2023-02-15T03:50:52;-2.30;89.70
75105;DHT22;64778;47.314;8.466;2023-02-15T03:53:38;-2.40;90.10
75105;DHT22;64778;47.314;8.466;2023-02-15T03:56:04;-2.50;90.10
75105;DHT22;64778;47.314;8.466;2023-02-15T03:58:32;-2.70;89.30
75105;DHT22;64778;47.314;8.466;2023-02-15T04:01:20;-2.90;90.10
75105;DHT22;64778;47.314;8.466;2023-02-15T04:04:11;-3.00;90.10
75105;DHT22;64778;47.314;8.466;2023-02-15T04:06:41;-3.40;90.30
75105;DHT22;64778;47.314;8.466;2023-02-15T04:09:09;-3.60;91.00
75105;DHT22;64778;47.314;8.466;2023-02-15T04:11:56;-3.80;91.60
75105;DHT22;64778;47.314;8.466;2023-02-15T04:14:24;-3.70;91.70
75105;DHT22;64778;47.314;8.466;2023-02-15T04:17:09;-3.70;91.60
75105;DHT22;64778;47.314;8.466;2023-02-15T04:19:35;-3.60;91.50
75105;DHT22;64778;47.314;8.466;2023-02-15T04:22:19;-3.60;91.40
75105;DHT22;64778;47.314;8.466;2023-02-15T04:25:04;-3.40;91.20
75105;DHT22;64778;47.314;8.466;2023-02-15T04:27:37;-3.40;91.00
75105;DHT22;64778;47.314;8.466;2023-02-15T04:30:04;-3.30;90.70
75105;DHT22;64778;47.314;8.466;2023-02-15T04:32:31;-3.30;90.80
75105;DHT22;64778;47.314;8.466;2023-02-15T04:34:57;-3.40;90.60
75105;DHT22;64778;47.314;8.466;2023-02-15T04:37:25;-3.40;90.50
75105;DHT22;64778;47.314;8.466;2023-02-15T04:39:50;-3.40;90.50
75105;DHT22;64778;47.314;8.466;2023-02-15T04:42:16;-3.40;90.50
75105;DHT22;64778;47.314;8.466;2023-02-15T04:44:46;-3.30;90.30
75105;DHT22;64778;47.314;8.466;2023-02-15T04:47:14;-3.30;90.30
75105;DHT22;64778;47.314;8.466;2023-02-15T04:49:42;-3.30;90.20
75105;DHT22;64778;47.314;8.466;2023-02-15T04:52:11;-3.20;90.20
75105;DHT22;64778;47.314;8.466;2023-02-15T04:54:37;-3.20;90.30
75105;DHT22;64778;47.314;8.466;2023-02-15T04:57:03;-3.10;90.20
75105;DHT22;64778;47.314;8.466;2023-02-15T04:59:29;-3.10;90.30
75105;DHT22;64778;47.314;8.466;2023-02-15T05:01:57;-3.00;90.30
75105;DHT22;64778;47.314;8.466;2023-02-15T05:04:23;-2.90;90.20
75105;DHT22;64778;47.314;8.466;2023-02-15T05:06:48;-2.80;90.10
75105;DHT22;64778;47.314;8.466;2023-02-15T05:09:15;-2.80;90.10
75105;DHT22;64778;47.314;8.466;2023-02-15T05:11:41;-2.80;90.10
75105;DHT22;64778;47.314;8.466;2023-02-15T05:14:07;-2.70;90.00
75105;DHT22;64778;47.314;8.466;2023-02-15T05:16:32;-2.60;89.80
75105;DHT22;64778;47.314;8.466;2023-02-15T05:19:00;-2.60;89.40
75105;DHT22;64778;47.314;8.466;2023-02-15T05:21:31;-2.60;89.10
75105;DHT22;64778;47.314;8.466;2023-02-15T05:23:59;-2.60;89.20
75105;DHT22;64778;47.314;8.466;2023-02-15T05:26:25;-2.60;89.30
75105;DHT22;64778;47.314;8.466;2023-02-15T05:29:09;-2.70;89.00
75105;DHT22;64778;47.314;8.466;2023-02-15T05:31:35;-2.70;89.30
75105;DHT22;64778;47.314;8.466;2023-02-15T05:34:00;-2.70;89.60
75105;DHT22;64778;47.314;8.466;2023-02-15T05:36:26;-2.80;89.40
75105;DHT22;64778;47.314;8.466;2023-02-15T05:38:54;-2.80;89.80
75105;DHT22;64778;47.314;8.466;2023-02-15T05:41:21;-2.80;90.00
75105;DHT22;64778;47.314;8.466;2023-02-15T05:43:50;-2.70;90.00
75105;DHT22;64778;47.314;8.466;2023-02-15T05:46:18;-2.70;89.90
75105;DHT22;64778;47.314;8.466;2023-02-15T05:48:43;-2.60;90.00
75105;DHT22;64778;47.314;8.466;2023-02-15T05:51:12;-2.60;89.70
75105;DHT22;64778;47.314;8.466;2023-02-15T05:53:38;-2.50;89.90
75105;DHT22;64778;47.314;8.466;2023-02-15T05:56:05;-2.60;89.60
75105;DHT22;64778;47.314;8.466;2023-02-15T05:58:35;-2.60;89.90
75105;DHT22;64778;47.314;8.466;2023-02-15T06:01:10;-2.50;90.00
75105;DHT22;64778;47.314;8.466;2023-02-15T06:03:36;-2.50;89.90
75105;DHT22;64778;47.314;8.466;2023-02-15T06:06:01;-2.50;89.40
75105;DHT22;64778;47.314;8.466;2023-02-15T06:08:32;-2.60;89.70
75105;DHT22;64778;47.314;8.466;2023-02-15T06:10:57;-2.60;89.90
75105;DHT22;64778;47.314;8.466;2023-02-15T06:13:23;-2.60;89.50
75105;DHT22;64778;47.314;8.466;2023-02-15T06:15:48;-2.60;89.50
75105;DHT22;64778;47.314;8.466;2023-02-15T06:18:14;-2.60;89.50
75105;DHT22;64778;47.314;8.466;2023-02-15T06:20:39;-2.70;89.60
75105;DHT22;64778;47.314;8.466;2023-02-15T06:23:05;-2.70;89.40
75105;DHT22;64778;47.314;8.466;2023-02-15T06:25:33;-2.60;89.20
75105;DHT22;64778;47.314;8.466;2023-02-15T06:27:58;-2.60;89.30
75105;DHT22;64778;47.314;8.466;2023-02-15T06:30:24;-2.70;89.30
75105;DHT22;64778;47.314;8.466;2023-02-15T06:32:49;-2.70;89.30
75105;DHT22;64778;47.314;8.466;2023-02-15T06:35:17;-2.80;89.60
75105;DHT22;64778;47.314;8.466;2023-02-15T06:37:44;-2.80;89.70
75105;DHT22;64778;47.314;8.466;2023-02-15T06:40:10;-2.80;89.10
75105;DHT22;64778;47.314;8.466;2023-02-15T06:42:35;-2.80;88.80
75105;DHT22;64778;47.314;8.466;2023-02-15T06:45:01;-2.80;88.70
75105;DHT22;64778;47.314;8.466;2023-02-15T06:47:26;-2.80;88.30
75105;DHT22;64778;47.314;8.466;2023-02-15T06:49:52;-2.80;88.30
75105;DHT22;64778;47.314;8.466;2023-02-15T06:52:17;-3.10;89.30
75105;DHT22;64778;47.314;8.466;2023-02-15T06:54:45;-3.30;90.20
75105;DHT22;64778;47.314;8.466;2023-02-15T06:57:11;-3.30;90.10
75105;DHT22;64778;47.314;8.466;2023-02-15T06:59:39;-3.20;90.10
75105;DHT22;64778;47.314;8.466;2023-02-15T07:02:04;-3.20;90.10
75105;DHT22;64778;47.314;8.466;2023-02-15T07:04:30;-3.20;89.70
75105;DHT22;64778;47.314;8.466;2023-02-15T07:06:56;-3.10;89.60
75105;DHT22;64778;47.314;8.466;2023-02-15T07:09:21;-3.00;88.90
75105;DHT22;64778;47.314;8.466;2023-02-15T07:11:49;-3.00;88.40
75105;DHT22;64778;47.314;8.466;2023-02-15T07:14:33;-3.00;88.60
75105;DHT22;64778;47.314;8.466;2023-02-15T07:16:59;-2.90;88.30
75105;DHT22;64778;47.314;8.466;2023-02-15T07:19:24;-2.90;88.30
75105;DHT22;64778;47.314;8.466;2023-02-15T07:21:52;-2.90;87.90
75105;DHT22;64778;47.314;8.466;2023-02-15T07:24:18;-2.90;88.40
75105;DHT22;64778;47.314;8.466;2023-02-15T07:26:43;-2.90;88.80
75105;DHT22;64778;47.314;8.466;2023-02-15T07:29:09;-3.00;88.90
75105;DHT22;64778;47.314;8.466;2023-02-15T07:31:37;-2.90;89.00
75105;DHT22;64778;47.314;8.466;2023-02-15T07:34:02;-2.70;88.80
75105;DHT22;64778;47.314;8.466;2023-02-15T07:36:30;-2.50;88.30
75105;DHT22;64778;47.314;8.466;2023-02-15T07:38:56;-2.50;87.90
75105;DHT22;64778;47.314;8.466;2023-02-15T07:41:21;-2.30;88.00
75105;DHT22;64778;47.314;8.466;2023-02-15T07:43:48;-2.20;87.70
75105;DHT22;64778;47.314;8.466;2023-02-15T07:46:14;-2.10;87.40
75105;DHT22;64778;47.314;8.466;2023-02-15T07:48:41;-2.10;87.70
75105;DHT22;64778;47.314;8.466;2023-02-15T07:51:11;-2.10;88.20
75105;DHT22;64778;47.314;8.466;2023-02-15T07:53:37;-2.20;89.20
75105;DHT22;64778;47.314;8.466;2023-02-15T07:56:04;-2.10;89.60
75105;DHT22;64778;47.314;8.466;2023-02-15T07:58:30;-2.10;90.00
75105;DHT22;64778;47.314;8.466;2023-02-15T08:01:17;-1.80;88.80
75105;DHT22;64778;47.314;8.466;2023-02-15T08:03:42;-1.80;88.50
75105;DHT22;64778;47.314;8.466;2023-02-15T08:06:08;-1.50;87.90
75105;DHT22;64778;47.314;8.466;2023-02-15T08:08:35;-1.50;88.40
75105;DHT22;64778;47.314;8.466;2023-02-15T08:11:01;-1.30;87.60
75105;DHT22;64778;47.314;8.466;2023-02-15T08:13:46;-1.20;87.10
75105;DHT22;64778;47.314;8.466;2023-02-15T08:16:22;-0.90;86.60
75105;DHT22;64778;47.314;8.466;2023-02-15T08:18:47;-0.80;86.30
75105;DHT22;64778;47.314;8.466;2023-02-15T08:21:13;-0.70;86.00
75105;DHT22;64778;47.314;8.466;2023-02-15T08:23:38;-0.50;85.90
75105;DHT22;64778;47.314;8.466;2023-02-15T08:26:04;-0.50;85.60
75105;DHT22;64778;47.314;8.466;2023-02-15T08:28:30;-0.40;86.40
75105;DHT22;64778;47.314;8.466;2023-02-15T08:31:03;-0.40;87.00
75105;DHT22;64778;47.314;8.466;2023-02-15T08:33:29;-0.40;87.70
75105;DHT22;64778;47.314;8.466;2023-02-15T08:35:54;-0.40;89.10
75105;DHT22;64778;47.314;8.466;2023-02-15T08:38:20;-0.20;88.10
75105;DHT22;64778;47.314;8.466;2023-02-15T08:40:48;0.10;87.50
75105;DHT22;64778;47.314;8.466;2023-02-15T08:43:15;0.30;87.50
75105;DHT22;64778;47.314;8.466;2023-02-15T08:45:41;0.60;87.10
75105;DHT22;64778;47.314;8.466;2023-02-15T08:48:09;0.80;86.60
75105;DHT22;64778;47.314;8.466;2023-02-15T08:50:36;0.90;86.80
75105;DHT22;64778;47.314;8.466;2023-02-15T08:53:04;1.10;85.80
75105;DHT22;64778;47.314;8.466;2023-02-15T08:55:30;1.30;85.20
75105;DHT22;64778;47.314;8.466;2023-02-15T08:57:58;1.30;84.70
75105;DHT22;64778;47.314;8.466;2023-02-15T09:00:26;1.50;84.50
75105;DHT22;64778;47.314;8.466;2023-02-15T09:02:53;1.40;85.20
75105;DHT22;64778;47.314;8.466;2023-02-15T09:05:19;1.40;85.80
75105;DHT22;64778;47.314;8.466;2023-02-15T09:07:44;1.40;87.50
75105;DHT22;64778;47.314;8.466;2023-02-15T09:10:12;1.20;88.30
75105;DHT22;64778;47.314;8.466;2023-02-15T09:12:40;0.90;89.70
75105;DHT22;64778;47.314;8.466;2023-02-15T09:15:08;0.90;88.80
75105;DHT22;64778;47.314;8.466;2023-02-15T09:17:34;1.20;87.90
75105;DHT22;64778;47.314;8.466;2023-02-15T09:19:59;1.50;87.20
75105;DHT22;64778;47.314;8.466;2023-02-15T09:22:25;1.80;86.60
75105;DHT22;64778;47.314;8.466;2023-02-15T09:24:56;2.10;86.80
75105;DHT22;64778;47.314;8.466;2023-02-15T09:27:26;2.20;86.10
75105;DHT22;64778;47.314;8.466;2023-02-15T09:29:54;2.30;85.30
75105;DHT22;64778;47.314;8.466;2023-02-15T09:32:22;2.00;86.80
75105;DHT22;64778;47.314;8.466;2023-02-15T09:34:48;1.90;87.30
75105;DHT22;64778;47.314;8.466;2023-02-15T09:37:13;2.30;86.40
75105;DHT22;64778;47.314;8.466;2023-02-15T09:39:41;2.40;85.90
75105;DHT22;64778;47.314;8.466;2023-02-15T09:55:48;2.90;86.40
75105;DHT22;64778;47.314;8.466;2023-02-15T10:09:19;3.10;83.70
75105;DHT22;64778;47.314;8.466;2023-02-15T10:27:50;3.80;84.20
75105;DHT22;64778;47.314;8.466;2023-02-15T10:30:20;3.50;87.80
75105;DHT22;64778;47.314;8.466;2023-02-15T10:33:04;4.30;86.70
75105;DHT22;64778;47.314;8.466;2023-02-15T10:35:54;4.80;84.40
75105;DHT22;64778;47.314;8.466;2023-02-15T10:38:42;5.30;82.00
75105;DHT22;64778;47.314;8.466;2023-02-15T10:57:17;6.90;75.20
75105;DHT22;64778;47.314;8.466;2023-02-15T11:05:34;6.30;81.40
75105;DHT22;64778;47.314;8.466;2023-02-15T11:08:06;6.80;78.10
75105;DHT22;64778;47.314;8.466;2023-02-15T11:10:47;7.20;75.90
75105;DHT22;64778;47.314;8.466;2023-02-15T11:13:19;7.30;75.40
75105;DHT22;64778;47.314;8.466;2023-02-15T11:18:34;7.20;76.00
75105;DHT22;64778;47.314;8.466;2023-02-15T11:21:22;7.20;74.90
75105;DHT22;64778;47.314;8.466;2023-02-15T11:23:51;7.00;75.30
75105;DHT22;64778;47.314;8.466;2023-02-15T11:26:43;7.20;76.10
75105;DHT22;64778;47.314;8.466;2023-02-15T11:29:25;6.90;76.70
75105;DHT22;64778;47.314;8.466;2023-02-15T11:31:54;7.20;76.20
75105;DHT22;64778;47.314;8.466;2023-02-15T11:36:59;6.90;78.90
75105;DHT22;64778;47.314;8.466;2023-02-15T11:39:29;7.80;75.00
75105;DHT22;64778;47.314;8.466;2023-02-15T11:42:00;7.90;75.40
75105;DHT22;64778;47.314;8.466;2023-02-15T11:45:02;8.50;72.80
75105;DHT22;64778;47.314;8.466;2023-02-15T11:47:29;9.00;70.80
75105;DHT22;64778;47.314;8.466;2023-02-15T11:49:55;9.50;68.50
75105;DHT22;64778;47.314;8.466;2023-02-15T11:52:21;9.90;67.70
75105;DHT22;64778;47.314;8.466;2023-02-15T11:54:49;10.10;66.10
75105;DHT22;64778;47.314;8.466;2023-02-15T11:59:51;10.40;67.50
75105;DHT22;64778;47.314;8.466;2023-02-15T12:02:23;9.80;67.50
75105;DHT22;64778;47.314;8.466;2023-02-15T12:04:58;10.20;67.00
75105;DHT22;64778;47.314;8.466;2023-02-15T12:07:35;10.60;67.10
75105;DHT22;64778;47.314;8.466;2023-02-15T12:12:46;9.80;68.90
75105;DHT22;64778;47.314;8.466;2023-02-15T12:15:16;10.70;67.20
75105;DHT22;64778;47.314;8.466;2023-02-15T12:17:57;11.00;66.30
75105;DHT22;64778;47.314;8.466;2023-02-15T12:20:29;11.90;63.50
75105;DHT22;64778;47.314;8.466;2023-02-15T12:23:14;11.60;63.80
75105;DHT22;64778;47.314;8.466;2023-02-15T12:25:43;12.00;62.80
75105;DHT22;64778;47.314;8.466;2023-02-15T12:30:58;11.90;61.90
75105;DHT22;64778;47.314;8.466;2023-02-15T12:36:24;12.00;61.60
75105;DHT22;64778;47.314;8.466;2023-02-15T12:41:30;13.30;59.60
75105;DHT22;64778;47.314;8.466;2023-02-15T12:44:29;14.30;54.00
75105;DHT22;64778;47.314;8.466;2023-02-15T12:49:21;14.80;52.40
75105;DHT22;64778;47.314;8.466;2023-02-15T12:51:58;15.70;50.60
75105;DHT22;64778;47.314;8.466;2023-02-15T12:56:54;17.50;44.50
75105;DHT22;64778;47.314;8.466;2023-02-15T12:59:23;17.30;44.80
75105;DHT22;64778;47.314;8.466;2023-02-15T13:01:51;17.10;44.70
75105;DHT22;64778;47.314;8.466;2023-02-15T13:06:52;16.50;44.50
75105;DHT22;64778;47.314;8.466;2023-02-15T13:09:24;15.10;47.90
75105;DHT22;64778;47.314;8.466;2023-02-15T13:11:50;15.10;48.60
75105;DHT22;64778;47.314;8.466;2023-02-15T13:14:17;16.60;46.10
75105;DHT22;64778;47.314;8.466;2023-02-15T13:16:44;18.00;42.80
75105;DHT22;64778;47.314;8.466;2023-02-15T13:19:12;18.20;42.00
75105;DHT22;64778;47.314;8.466;2023-02-15T13:21:43;18.60;40.40
75105;DHT22;64778;47.314;8.466;2023-02-15T13:24:41;19.00;40.80
75105;DHT22;64778;47.314;8.466;2023-02-15T13:27:19;19.30;39.10
75105;DHT22;64778;47.314;8.466;2023-02-15T13:29:56;20.40;38.50
75105;DHT22;64778;47.314;8.466;2023-02-15T13:32:31;19.40;39.20
75105;DHT22;64778;47.314;8.466;2023-02-15T13:35:00;19.50;39.00
75105;DHT22;64778;47.314;8.466;2023-02-15T13:40:15;20.30;38.60
75105;DHT22;64778;47.314;8.466;2023-02-15T13:46:21;21.30;36.20
75105;DHT22;64778;47.314;8.466;2023-02-15T13:51:43;21.90;35.80
75105;DHT22;64778;47.314;8.466;2023-02-15T13:59:58;22.20;35.10
75105;DHT22;64778;47.314;8.466;2023-02-15T14:03:04;21.60;35.60
75105;DHT22;64778;47.314;8.466;2023-02-15T14:14:03;21.30;36.00
75105;DHT22;64778;47.314;8.466;2023-02-15T14:19:40;20.40;37.70
75105;DHT22;64778;47.314;8.466;2023-02-15T14:24:47;19.20;40.20
75105;DHT22;64778;47.314;8.466;2023-02-15T14:30:36;19.50;39.10
75105;DHT22;64778;47.314;8.466;2023-02-15T14:35:42;23.40;35.10
75105;DHT22;64778;47.314;8.466;2023-02-15T14:38:15;23.70;33.90
75105;DHT22;64778;47.314;8.466;2023-02-15T15:07:35;21.70;36.00
75105;DHT22;64778;47.314;8.466;2023-02-15T15:18:05;22.60;34.70
75105;DHT22;64778;47.314;8.466;2023-02-15T15:36:22;23.40;31.70
75105;DHT22;64778;47.314;8.466;2023-02-15T15:42:11;25.40;29.90
75105;DHT22;64778;47.314;8.466;2023-02-15T15:44:47;24.70;30.00
75105;DHT22;64778;47.314;8.466;2023-02-15T15:49:57;24.60;30.30
75105;DHT22;64778;47.314;8.466;2023-02-15T15:52:26;24.80;29.90
75105;DHT22;64778;47.314;8.466;2023-02-15T15:54:53;24.30;30.40
75105;DHT22;64778;47.314;8.466;2023-02-15T15:59:50;24.00;30.00
75105;DHT22;64778;47.314;8.466;2023-02-15T16:02:16;24.70;30.00
75105;DHT22;64778;47.314;8.466;2023-02-15T16:04:43;23.80;30.90
75105;DHT22;64778;47.314;8.466;2023-02-15T16:12:29;23.60;30.50
75105;DHT22;64778;47.314;8.466;2023-02-15T16:14:55;22.30;32.00
75105;DHT22;64778;47.314;8.466;2023-02-15T16:17:23;20.70;33.80
75105;DHT22;64778;47.314;8.466;2023-02-15T16:19:49;18.30;37.40
75105;DHT22;64778;47.314;8.466;2023-02-15T16:22:23;16.20;41.50
75105;DHT22;64778;47.314;8.466;2023-02-15T16:27:19;13.40;48.20
75105;DHT22;64778;47.314;8.466;2023-02-15T16:29:48;12.50;50.90
75105;DHT22;64778;47.314;8.466;2023-02-15T16:32:22;11.70;53.50
75105;DHT22;64778;47.314;8.466;2023-02-15T16:34:50;11.00;56.10
75105;DHT22;64778;47.314;8.466;2023-02-15T16:37:16;10.40;58.20
75105;DHT22;64778;47.314;8.466;2023-02-15T16:39:42;10.20;59.30
75105;DHT22;64778;47.314;8.466;2023-02-15T16:42:08;9.80;60.70
75105;DHT22;64778;47.314;8.466;2023-02-15T16:44:35;9.50;61.90
75105;DHT22;64778;47.314;8.466;2023-02-15T16:47:03;9.30;63.20
75105;DHT22;64778;47.314;8.466;2023-02-15T16:49:28;8.80;65.40
75105;DHT22;64778;47.314;8.466;2023-02-15T16:52:02;8.80;65.50
75105;DHT22;64778;47.314;8.466;2023-02-15T16:54:30;8.60;66.10
75105;DHT22;64778;47.314;8.466;2023-02-15T16:56:56;8.40;67.30
75105;DHT22;64778;47.314;8.466;2023-02-15T16:59:38;8.30;68.00
75105;DHT22;64778;47.314;8.466;2023-02-15T17:02:05;8.20;68.20
75105;DHT22;64778;47.314;8.466;2023-02-15T17:04:32;8.10;69.00
75105;DHT22;64778;47.314;8.466;2023-02-15T17:07:24;8.00;69.20
75105;DHT22;64778;47.314;8.466;2023-02-15T17:09:52;7.90;69.70
75105;DHT22;64778;47.314;8.466;2023-02-15T17:17:50;7.30;71.80
75105;DHT22;64778;47.314;8.466;2023-02-15T17:20:16;7.20;72.40
75105;DHT22;64778;47.314;8.466;2023-02-15T17:22:46;7.10;73.20
75105;DHT22;64778;47.314;8.466;2023-02-15T17:25:18;7.00;73.80
75105;DHT22;64778;47.314;8.466;2023-02-15T17:27:43;6.80;73.80
75105;DHT22;64778;47.314;8.466;2023-02-15T17:30:13;6.80;73.90
75105;DHT22;64778;47.314;8.466;2023-02-15T17:32:53;6.80;74.30
75105;DHT22;64778;47.314;8.466;2023-02-15T17:35:22;6.80;74.20
75105;DHT22;64778;47.314;8.466;2023-02-15T17:37:54;6.70;74.40
75105;DHT22;64778;47.314;8.466;2023-02-15T17:40:32;6.60;74.60
75105;DHT22;64778;47.314;8.466;2023-02-15T17:42:58;6.50;75.00
75105;DHT22;64778;47.314;8.466;2023-02-15T17:45:30;6.50;74.80
75105;DHT22;64778;47.314;8.466;2023-02-15T17:47:57;6.40;74.70
75105;DHT22;64778;47.314;8.466;2023-02-15T17:50:26;6.40;74.80
75105;DHT22;64778;47.314;8.466;2023-02-15T17:52:55;6.10;75.30
75105;DHT22;64778;47.314;8.466;2023-02-15T17:55:24;6.00;75.80
75105;DHT22;64778;47.314;8.466;2023-02-15T17:58:12;6.00;75.50
75105;DHT22;64778;47.314;8.466;2023-02-15T18:00:56;6.00;75.10
75105;DHT22;64778;47.314;8.466;2023-02-15T18:03:51;6.10;74.60
75105;DHT22;64778;47.314;8.466;2023-02-15T18:06:39;6.10;74.00
75105;DHT22;64778;47.314;8.466;2023-02-15T18:09:24;6.10;73.10
75105;DHT22;64778;47.314;8.466;2023-02-15T18:14:40;6.00;73.00
75105;DHT22;64778;47.314;8.466;2023-02-15T18:17:13;6.00;72.90
75105;DHT22;64778;47.314;8.466;2023-02-15T18:19:40;6.00;72.80
75105;DHT22;64778;47.314;8.466;2023-02-15T18:22:16;6.00;72.90
75105;DHT22;64778;47.314;8.466;2023-02-15T18:24:44;5.90;73.40
75105;DHT22;64778;47.314;8.466;2023-02-15T18:27:11;5.70;73.80
75105;DHT22;64778;47.314;8.466;2023-02-15T18:29:37;5.60;73.80
75105;DHT22;64778;47.314;8.466;2023-02-15T18:32:06;5.50;73.80
75105;DHT22;64778;47.314;8.466;2023-02-15T18:34:37;5.50;74.20
75105;DHT22;64778;47.314;8.466;2023-02-15T18:37:05;5.40;74.10
75105;DHT22;64778;47.314;8.466;2023-02-15T18:39:40;5.30;74.40
75105;DHT22;64778;47.314;8.466;2023-02-15T18:42:26;5.30;74.40
75105;DHT22;64778;47.314;8.466;2023-02-15T18:44:55;5.30;74.30
75105;DHT22;64778;47.314;8.466;2023-02-15T18:47:21;5.20;74.20
75105;DHT22;64778;47.314;8.466;2023-02-15T18:49:49;5.30;74.10
75105;DHT22;64778;47.314;8.466;2023-02-15T18:52:20;5.20;74.30
75105;DHT22;64778;47.314;8.466;2023-02-15T18:55:01;5.10;74.60
75105;DHT22;64778;47.314;8.466;2023-02-15T18:57:28;5.10;75.00
75105;DHT22;64778;47.314;8.466;2023-02-15T18:59:54;5.10;74.70
75105;DHT22;64778;47.314;8.466;2023-02-15T19:02:22;5.10;74.20
75105;DHT22;64778;47.314;8.466;2023-02-15T19:04:50;5.00;74.40
75105;DHT22;64778;47.314;8.466;2023-02-15T19:07:22;5.00;74.00
75105;DHT22;64778;47.314;8.466;2023-02-15T19:09:51;4.90;74.10
75105;DHT22;64778;47.314;8.466;2023-02-15T19:12:21;4.80;74.70
75105;DHT22;64778;47.314;8.466;2023-02-15T19:14:47;4.90;77.80
75105;DHT22;64778;47.314;8.466;2023-02-15T19:17:15;5.00;74.10
75105;DHT22;64778;47.314;8.466;2023-02-15T19:19:41;4.90;73.90
75105;DHT22;64778;47.314;8.466;2023-02-15T19:22:15;4.90;74.00
75105;DHT22;64778;47.314;8.466;2023-02-15T19:24:45;4.90;73.70
75105;DHT22;64778;47.314;8.466;2023-02-15T19:27:32;4.90;73.80
75105;DHT22;64778;47.314;8.466;2023-02-15T19:30:14;4.90;73.70
75105;DHT22;64778;47.314;8.466;2023-02-15T19:32:43;4.80;73.90
75105;DHT22;64778;47.314;8.466;2023-02-15T19:35:16;4.80;74.20
75105;DHT22;64778;47.314;8.466;2023-02-15T19:37:56;4.80;74.20